sensor_id;sensor_type;location;lat;lon;timestamp;pressure;altitude;pressure_sealevel;temperature;humidity
13050;BME280;6591;51.446;5.404;2023-03-24T00:01:25;99574.44;;;18.72;54.48
13050;BME280;6591;51.446;5.404;2023-03-24T00:03:53;99569.56;;;18.76;54.38
13050;BME280;6591;51.446;5.404;2023-03-24T00:06:23;99558.81;;;18.76;54.41
13050;BME280;6591;51.446;5.404;2023-03-24T00:08:52;99563.06;;;18.78;54.31
13050;BME280;6591;51.446;5.404;2023-03-24T00:11:19;99550.28;;;18.80;54.37
13050;BME280;6591;51.446;5.404;2023-03-24T00:13:47;99552.97;;;18.80;54.47
13050;BME280;6591;51.446;5.404;2023-03-24T00:16:17;99551.13;;;18.81;54.60
13050;BME280;6591;51.446;5.404;2023-03-24T00:18:46;99542.91;;;18.82;54.35
13050;BME280;6591;51.446;5.404;2023-03-24T00:21:22;99539.22;;;18.83;54.38
13050;BME280;6591;51.446;5.404;2023-03-24T00:23:52;99541.75;;;18.85;54.81
13050;BME280;6591;51.446;5.404;2023-03-24T00:26:21;99544.16;;;18.88;54.65
13050;BME280;6591;51.446;5.404;2023-03-24T00:28:48;99536.75;;;18.90;54.81
13050;BME280;6591;51.446;5.404;2023-03-24T00:31:16;99552.44;;;18.94;54.66
13050;BME280;6591;51.446;5.404;2023-03-24T00:33:46;99534.28;;;18.96;54.55
13050;BME280;6591;51.446;5.404;2023-03-24T00:36:19;99540.19;;;19.00;54.60
13050;BME280;6591;51.446;5.404;2023-03-24T00:38:47;99534.53;;;19.03;54.68
13050;BME280;6591;51.446;5.404;2023-03-24T00:41:15;99531.50;;;19.06;54.61
13050;BME280;6591;51.446;5.404;2023-03-24T00:43:48;99526.81;;;19.08;54.12
13050;BME280;6591;51.446;5.404;2023-03-24T00:46:16;99520.13;;;19.12;54.53
13050;BME280;6591;51.446;5.404;2023-03-24T00:49:02;99504.97;;;19.11;54.51
13050;BME280;6591;51.446;5.404;2023-03-24T00:51:36;99506.53;;;19.14;54.60
13050;BME280;6591;51.446;5.404;2023-03-24T00:54:05;99503.34;;;19.18;54.58
13050;BME280;6591;51.446;5.404;2023-03-24T00:56:35;99509.25;;;19.22;54.44
13050;BME280;6591;51.446;5.404;2023-03-24T00:59:04;99489.28;;;19.24;54.21
13050;BME280;6591;51.446;5.404;2023-03-24T01:01:33;99490.13;;;19.25;54.40
13050;BME280;6591;51.446;5.404;2023-03-24T01:04:04;99488.09;;;19.27;54.48
13050;BME280;6591;51.446;5.404;2023-03-24T01:06:35;99479.88;;;19.28;54.36
13050;BME280;6591;51.446;5.404;2023-03-24T01:09:05;99484.41;;;19.28;54.28
13050;BME280;6591;51.446;5.404;2023-03-24T01:11:38;99481.72;;;19.28;54.45
13050;BME280;6591;51.446;5.404;2023-03-24T01:14:09;99489.63;;;19.29;54.49
13050;BME280;6591;51.446;5.404;2023-03-24T01:16:37;99494.03;;;19.30;54.24
13050;BME280;6591;51.446;5.404;2023-03-24T01:19:05;99483.25;;;19.30;54.00
13050;BME280;6591;51.446;5.404;2023-03-24T01:21:36;99480.56;;;19.30;54.16
13050;BME280;6591;51.446;5.404;2023-03-24T01:24:05;99466.41;;;19.28;54.18
13050;BME280;6591;51.446;5.404;2023-03-24T01:26:32;99472.97;;;19.26;54.23
13050;BME280;6591;51.446;5.404;2023-03-24T01:28:59;99472.28;;;19.24;54.21
13050;BME280;6591;51.446;5.404;2023-03-24T01:31:27;99469.72;;;19.22;54.30
13050;BME280;6591;51.446;5.404;2023-03-24T01:33:54;99462.66;;;19.21;54.26
13050;BME280;6591;51.446;5.404;2023-03-24T01:36:22;99461.97;;;19.19;54.24
13050;BME280;6591;51.446;5.404;2023-03-24T01:38:49;99455.91;;;19.17;54.36
13050;BME280;6591;51.446;5.404;2023-03-24T01:41:17;99459.59;;;19.16;54.48
13050;BME280;6591;51.446;5.404;2023-03-24T01:43:44;99450.84;;;19.14;54.24
13050;BME280;6591;51.446;5.404;2023-03-24T01:46:22;99445.78;;;19.11;54.54
13050;BME280;6591;51.446;5.404;2023-03-24T01:49:01;99456.53;;;19.11;54.09
13050;BME280;6591;51.446;5.404;2023-03-24T01:51:36;99458.22;;;19.12;54.54
13050;BME280;6591;51.446;5.404;2023-03-24T01:54:15;99452.00;;;19.12;54.79
13050;BME280;6591;51.446;5.404;2023-03-24T01:57:00;99448.63;;;19.10;54.49
13050;BME280;6591;51.446;5.404;2023-03-24T01:59:34;99433.16;;;19.12;54.58
13050;BME280;6591;51.446;5.404;2023-03-24T02:02:15;99422.25;;;19.13;54.44
13050;BME280;6591;51.446;5.404;2023-03-24T02:04:54;99433.00;;;19.13;54.52
13050;BME280;6591;51.446;5.404;2023-03-24T02:08:00;99432.31;;;19.11;54.92
13050;BME280;6591;51.446;5.404;2023-03-24T02:10:33;99419.69;;;19.12;54.86
13050;BME280;6591;51.446;5.404;2023-03-24T02:13:02;99411.34;;;19.15;54.92
13050;BME280;6591;51.446;5.404;2023-03-24T02:15:39;99409.78;;;19.12;54.68
13050;BME280;6591;51.446;5.404;2023-03-24T02:18:23;99424.25;;;19.11;55.09
13050;BME280;6591;51.446;5.404;2023-03-24T02:30:37;99440.88;;;19.07;55.12
13050;BME280;6591;51.446;5.404;2023-03-24T02:51:22;99445.63;;;18.87;55.52
13050;BME280;6591;51.446;5.404;2023-03-24T02:54:08;99444.75;;;18.86;55.44
13050;BME280;6591;51.446;5.404;2023-03-24T02:59:57;99467.59;;;18.82;56.09
13050;BME280;6591;51.446;5.404;2023-03-24T03:03:25;99466.75;;;18.82;56.20
13050;BME280;6591;51.446;5.404;2023-03-24T03:06:17;99492.81;;;18.81;56.66
13050;BME280;6591;51.446;5.404;2023-03-24T03:08:48;99497.03;;;18.84;56.91
13050;BME280;6591;51.446;5.404;2023-03-24T03:11:17;99488.78;;;18.85;56.96
13050;BME280;6591;51.446;5.404;2023-03-24T03:14:01;99502.56;;;18.82;56.95
13050;BME280;6591;51.446;5.404;2023-03-24T03:16:37;99511.78;;;18.80;56.93
13050;BME280;6591;51.446;5.404;2023-03-24T03:19:20;99528.25;;;18.77;56.79
13050;BME280;6591;51.446;5.404;2023-03-24T03:21:51;99528.25;;;18.77;56.55
13050;BME280;6591;51.446;5.404;2023-03-24T03:24:22;99522.63;;;18.70;56.08
13050;BME280;6591;51.446;5.404;2023-03-24T03:27:03;99521.00;;;18.59;55.47
13050;BME280;6591;51.446;5.404;2023-03-24T03:29:38;99533.66;;;18.49;55.18
13050;BME280;6591;51.446;5.404;2023-03-24T03:32:10;99557.06;;;18.39;55.41
13050;BME280;6591;51.446;5.404;2023-03-24T03:34:49;99569.72;;;18.29;55.24
13050;BME280;6591;51.446;5.404;2023-03-24T03:37:35;99577.97;;;18.18;55.46
13050;BME280;6591;51.446;5.404;2023-03-24T03:40:13;99594.00;;;18.10;54.78
13050;BME280;6591;51.446;5.404;2023-03-24T03:42:47;99600.09;;;18.02;54.85
13050;BME280;6591;51.446;5.404;2023-03-24T03:45:14;99603.53;;;17.95;54.55
13050;BME280;6591;51.446;5.404;2023-03-24T03:47:42;99603.53;;;17.85;54.35
13050;BME280;6591;51.446;5.404;2023-03-24T03:50:10;99608.69;;;17.78;54.19
13050;BME280;6591;51.446;5.404;2023-03-24T03:52:38;99614.75;;;17.71;54.21
13050;BME280;6591;51.446;5.404;2023-03-24T03:55:09;99618.31;;;17.62;53.74
13050;BME280;6591;51.446;5.404;2023-03-24T03:57:39;99621.56;;;17.56;53.84
13050;BME280;6591;51.446;5.404;2023-03-24T04:00:17;99626.63;;;17.49;54.05
13050;BME280;6591;51.446;5.404;2023-03-24T04:06:04;99637.81;;;17.35;54.22
13050;BME280;6591;51.446;5.404;2023-03-24T04:17:58;99674.69;;;17.14;54.46
13050;BME280;6591;51.446;5.404;2023-03-24T04:32:30;99689.38;;;17.10;54.25
13050;BME280;6591;51.446;5.404;2023-03-24T04:35:20;99700.09;;;17.10;54.31
13050;BME280;6591;51.446;5.404;2023-03-24T04:38:16;99700.94;;;17.10;54.14
13050;BME280;6591;51.446;5.404;2023-03-24T04:40:54;99707.28;;;17.09;53.52
13050;BME280;6591;51.446;5.404;2023-03-24T04:43:27;99707.53;;;17.06;53.61
13050;BME280;6591;51.446;5.404;2023-03-24T04:46:05;99707.97;;;17.02;53.59
13050;BME280;6591;51.446;5.404;2023-03-24T04:48:51;99717.28;;;16.98;53.61
13050;BME280;6591;51.446;5.404;2023-03-24T04:51:24;99717.84;;;16.91;53.70
13050;BME280;6591;51.446;5.404;2023-03-24T04:54:13;99723.59;;;16.87;53.96
13050;BME280;6591;51.446;5.404;2023-03-24T04:56:53;99726.56;;;16.84;54.10
13050;BME280;6591;51.446;5.404;2023-03-24T04:59:41;99719.38;;;16.84;54.06
13050;BME280;6591;51.446;5.404;2023-03-24T05:02:09;99727.44;;;16.84;54.09
13050;BME280;6591;51.446;5.404;2023-03-24T05:04:41;99732.63;;;16.86;53.97
13050;BME280;6591;51.446;5.404;2023-03-24T05:07:30;99723.75;;;16.85;53.78
13050;BME280;6591;51.446;5.404;2023-03-24T05:10:03;99730.09;;;16.84;53.70
13050;BME280;6591;51.446;5.404;2023-03-24T05:12:36;99735.59;;;16.83;53.46
13050;BME280;6591;51.446;5.404;2023-03-24T05:15:22;99737.97;;;16.76;53.04
13050;BME280;6591;51.446;5.404;2023-03-24T05:17:54;99745.44;;;16.73;53.41
13050;BME280;6591;51.446;5.404;2023-03-24T05:20:25;99736.97;;;16.68;53.59
13050;BME280;6591;51.446;5.404;2023-03-24T05:22:58;99747.13;;;16.64;53.40
13050;BME280;6591;51.446;5.404;2023-03-24T05:25:25;99748.34;;;16.60;53.39
13050;BME280;6591;51.446;5.404;2023-03-24T05:27:52;99755.06;;;16.54;53.49
13050;BME280;6591;51.446;5.404;2023-03-24T05:30:23;99755.34;;;16.51;53.80
13050;BME280;6591;51.446;5.404;2023-03-24T05:32:57;99760.81;;;16.50;53.57
13050;BME280;6591;51.446;5.404;2023-03-24T05:35:24;99760.13;;;16.48;53.59
13050;BME280;6591;51.446;5.404;2023-03-24T05:37:52;99757.44;;;16.48;53.80
13050;BME280;6591;51.446;5.404;2023-03-24T05:40:19;99763.91;;;16.45;53.44
13050;BME280;6591;51.446;5.404;2023-03-24T05:42:56;99771.22;;;16.43;53.69
13050;BME280;6591;51.446;5.404;2023-03-24T05:45:26;99782.94;;;16.42;53.74
13050;BME280;6591;51.446;5.404;2023-03-24T05:47:56;99791.09;;;16.41;53.62
13050;BME280;6591;51.446;5.404;2023-03-24T05:50:36;99789.41;;;16.40;54.02
13050;BME280;6591;51.446;5.404;2023-03-24T05:53:03;99795.63;;;16.40;53.90
13050;BME280;6591;51.446;5.404;2023-03-24T05:55:53;99793.66;;;16.42;54.05
13050;BME280;6591;51.446;5.404;2023-03-24T05:58:59;99790.13;;;16.42;53.76
13050;BME280;6591;51.446;5.404;2023-03-24T06:01:44;99794.75;;;16.40;53.84
13050;BME280;6591;51.446;5.404;2023-03-24T06:04:23;99797.44;;;16.40;53.42
13050;BME280;6591;51.446;5.404;2023-03-24T06:06:55;99797.44;;;16.40;53.85
13050;BME280;6591;51.446;5.404;2023-03-24T06:09:31;99793.06;;;16.39;53.61
13050;BME280;6591;51.446;5.404;2023-03-24T06:12:13;99788.72;;;16.38;53.54
13050;BME280;6591;51.446;5.404;2023-03-24T06:14:57;99788.72;;;16.38;53.67
13050;BME280;6591;51.446;5.404;2023-03-24T06:17:24;99802.94;;;16.38;53.58
13050;BME280;6591;51.446;5.404;2023-03-24T06:19:56;99800.13;;;16.40;53.39
13050;BME280;6591;51.446;5.404;2023-03-24T06:22:47;99808.16;;;16.40;53.57
13050;BME280;6591;51.446;5.404;2023-03-24T06:25:21;99815.09;;;16.42;53.75
13050;BME280;6591;51.446;5.404;2023-03-24T06:27:58;99810.44;;;16.44;53.61
13050;BME280;6591;51.446;5.404;2023-03-24T06:30:32;99812.72;;;16.49;53.84
13050;BME280;6591;51.446;5.404;2023-03-24T06:32:59;99819.53;;;16.53;53.80
13050;BME280;6591;51.446;5.404;2023-03-24T06:35:26;99821.81;;;16.58;53.61
13050;BME280;6591;51.446;5.404;2023-03-24T06:38:03;99825.22;;;16.60;53.37
13050;BME280;6591;51.446;5.404;2023-03-24T06:40:31;99828.50;;;16.63;53.08
13050;BME280;6591;51.446;5.404;2023-03-24T06:42:58;99830.06;;;16.66;53.20
13050;BME280;6591;51.446;5.404;2023-03-24T06:45:26;99828.09;;;16.68;53.37
13050;BME280;6591;51.446;5.404;2023-03-24T06:47:57;99829.81;;;16.69;53.12
13050;BME280;6591;51.446;5.404;2023-03-24T06:50:24;99827.97;;;16.69;52.93
13050;BME280;6591;51.446;5.404;2023-03-24T06:52:54;99812.03;;;16.68;52.87
13050;BME280;6591;51.446;5.404;2023-03-24T06:55:22;99819.94;;;16.69;53.09
13050;BME280;6591;51.446;5.404;2023-03-24T06:57:52;99822.34;;;16.72;53.31
13050;BME280;6591;51.446;5.404;2023-03-24T07:00:36;99820.09;;;16.77;53.38
13050;BME280;6591;51.446;5.404;2023-03-24T07:03:40;99819.44;;;16.85;52.97
13050;BME280;6591;51.446;5.404;2023-03-24T07:06:27;99828.63;;;16.92;53.40
13050;BME280;6591;51.446;5.404;2023-03-24T07:09:01;99825.13;;;17.01;53.15
13050;BME280;6591;51.446;5.404;2023-03-24T07:11:29;99839.56;;;17.10;52.88
13050;BME280;6591;51.446;5.404;2023-03-24T07:13:58;99838.75;;;17.19;52.81
13050;BME280;6591;51.446;5.404;2023-03-24T07:16:27;99849.66;;;17.27;52.72
13050;BME280;6591;51.446;5.404;2023-03-24T07:19:17;99857.03;;;17.34;52.89
13050;BME280;6591;51.446;5.404;2023-03-24T07:21:49;99856.19;;;17.44;52.47
13050;BME280;6591;51.446;5.404;2023-03-24T07:24:23;99857.22;;;17.52;52.50
13050;BME280;6591;51.446;5.404;2023-03-24T07:27:03;99854.72;;;17.60;52.39
13050;BME280;6591;51.446;5.404;2023-03-24T07:29:33;99854.03;;;17.68;52.26
13050;BME280;6591;51.446;5.404;2023-03-24T07:32:29;99865.88;;;17.75;52.00
13050;BME280;6591;51.446;5.404;2023-03-24T07:35:01;99861.53;;;17.84;52.41
13050;BME280;6591;51.446;5.404;2023-03-24T07:37:28;99863.25;;;17.94;52.59
13050;BME280;6591;51.446;5.404;2023-03-24T07:39:55;99864.78;;;18.06;52.60
13050;BME280;6591;51.446;5.404;2023-03-24T07:42:23;99861.81;;;18.19;52.58
13050;BME280;6591;51.446;5.404;2023-03-24T07:45:14;99871.13;;;18.34;52.59
13050;BME280;6591;51.446;5.404;2023-03-24T07:47:44;99855.84;;;18.44;51.95
13050;BME280;6591;51.446;5.404;2023-03-24T07:50:13;99868.59;;;18.52;51.81
13050;BME280;6591;51.446;5.404;2023-03-24T07:52:45;99898.75;;;18.55;51.43
13050;BME280;6591;51.446;5.404;2023-03-24T07:55:15;99881.47;;;18.58;51.46
13050;BME280;6591;51.446;5.404;2023-03-24T07:58:08;99887.56;;;18.60;51.63
13050;BME280;6591;51.446;5.404;2023-03-24T08:00:37;99891.50;;;18.66;51.75
13050;BME280;6591;51.446;5.404;2023-03-24T08:03:19;99887.81;;;18.76;51.63
13050;BME280;6591;51.446;5.404;2023-03-24T08:06:18;99892.16;;;18.87;51.31
13050;BME280;6591;51.446;5.404;2023-03-24T08:08:55;99897.38;;;18.98;51.54
13050;BME280;6591;51.446;5.404;2023-03-24T08:11:22;99901.19;;;19.05;50.62
13050;BME280;6591;51.446;5.404;2023-03-24T08:13:49;99898.19;;;19.08;49.75
13050;BME280;6591;51.446;5.404;2023-03-24T08:16:16;99899.31;;;19.15;50.38
13050;BME280;6591;51.446;5.404;2023-03-24T08:18:43;99910.47;;;19.20;49.85
13050;BME280;6591;51.446;5.404;2023-03-24T08:21:10;99909.19;;;19.24;49.36
13050;BME280;6591;51.446;5.404;2023-03-24T08:23:37;99905.31;;;19.27;49.85
13050;BME280;6591;51.446;5.404;2023-03-24T08:26:04;99912.41;;;19.28;49.82
13050;BME280;6591;51.446;5.404;2023-03-24T08:28:32;99913.81;;;19.32;49.89
13050;BME280;6591;51.446;5.404;2023-03-24T08:30:59;99917.75;;;19.37;49.91
13050;BME280;6591;51.446;5.404;2023-03-24T08:33:27;99915.47;;;19.42;49.38
13050;BME280;6591;51.446;5.404;2023-03-24T08:35:54;99914.03;;;19.48;49.23
13050;BME280;6591;51.446;5.404;2023-03-24T08:38:24;99938.41;;;19.56;49.42
13050;BME280;6591;51.446;5.404;2023-03-24T08:41:02;99938.63;;;19.63;48.67
13050;BME280;6591;51.446;5.404;2023-03-24T08:43:34;99915.50;;;19.70;48.04
13050;BME280;6591;51.446;5.404;2023-03-24T08:46:06;99925.66;;;19.76;48.16
13050;BME280;6591;51.446;5.404;2023-03-24T08:48:33;99922.38;;;19.82;48.50
13050;BME280;6591;51.446;5.404;2023-03-24T08:51:11;99930.25;;;19.93;48.65
13050;BME280;6591;51.446;5.404;2023-03-24T08:53:38;99920.94;;;20.05;48.37
13050;BME280;6591;51.446;5.404;2023-03-24T08:56:06;99923.41;;;20.16;48.74
13050;BME280;6591;51.446;5.404;2023-03-24T08:58:33;99931.72;;;20.23;48.19
13050;BME280;6591;51.446;5.404;2023-03-24T09:01:01;99929.56;;;20.26;47.65
13050;BME280;6591;51.446;5.404;2023-03-24T09:03:28;99928.72;;;20.26;47.59
13050;BME280;6591;51.446;5.404;2023-03-24T09:05:56;99928.56;;;20.27;47.62
13050;BME280;6591;51.446;5.404;2023-03-24T09:08:24;99936.66;;;20.27;47.53
13050;BME280;6591;51.446;5.404;2023-03-24T09:10:51;99956.72;;;20.25;47.42
13050;BME280;6591;51.446;5.404;2023-03-24T09:13:19;99937.44;;;20.20;46.61
13050;BME280;6591;51.446;5.404;2023-03-24T09:15:52;99944.97;;;20.16;46.78
13050;BME280;6591;51.446;5.404;2023-03-24T09:18:20;99942.00;;;20.19;47.81
13050;BME280;6591;51.446;5.404;2023-03-24T09:20:48;99954.16;;;20.23;47.62
13050;BME280;6591;51.446;5.404;2023-03-24T09:23:18;99955.25;;;20.30;47.30
13050;BME280;6591;51.446;5.404;2023-03-24T09:25:47;99945.69;;;20.36;47.28
13050;BME280;6591;51.446;5.404;2023-03-24T09:28:14;99957.19;;;20.38;46.85
13050;BME280;6591;51.446;5.404;2023-03-24T09:30:43;99958.38;;;20.36;46.51
13050;BME280;6591;51.446;5.404;2023-03-24T09:33:10;99969.72;;;20.29;46.42
13050;BME280;6591;51.446;5.404;2023-03-24T09:35:38;99959.84;;;20.20;46.12
13050;BME280;6591;51.446;5.404;2023-03-24T09:38:05;99964.03;;;20.15;46.45
13050;BME280;6591;51.446;5.404;2023-03-24T09:40:37;99959.06;;;20.10;46.79
13050;BME280;6591;51.446;5.404;2023-03-24T09:43:09;99956.94;;;20.14;46.77
13050;BME280;6591;51.446;5.404;2023-03-24T09:45:49;99952.06;;;20.17;46.73
13050;BME280;6591;51.446;5.404;2023-03-24T09:48:43;99961.41;;;20.23;46.87
13050;BME280;6591;51.446;5.404;2023-03-24T09:51:21;99954.97;;;20.34;46.22
13050;BME280;6591;51.446;5.404;2023-03-24T09:56:37;99965.19;;;20.48;45.92
13050;BME280;6591;51.446;5.404;2023-03-24T09:59:18;99969.97;;;20.54;46.18
13050;BME280;6591;51.446;5.404;2023-03-24T10:01:47;99972.34;;;20.57;45.59
13050;BME280;6591;51.446;5.404;2023-03-24T10:04:19;99973.06;;;20.59;45.68
13050;BME280;6591;51.446;5.404;2023-03-24T10:06:54;99970.22;;;20.60;45.90
13050;BME280;6591;51.446;5.404;2023-03-24T10:09:33;99968.19;;;20.62;45.28
13050;BME280;6591;51.446;5.404;2023-03-24T10:14:50;99974.44;;;20.63;45.25
13050;BME280;6591;51.446;5.404;2023-03-24T10:20:34;100006.13;;;20.61;45.42
13050;BME280;6591;51.446;5.404;2023-03-24T10:26:16;99989.25;;;20.59;45.13
13050;BME280;6591;51.446;5.404;2023-03-24T10:31:31;99990.19;;;20.50;44.85
13050;BME280;6591;51.446;5.404;2023-03-24T10:33:59;99977.69;;;20.49;44.83
13050;BME280;6591;51.446;5.404;2023-03-24T10:36:27;99979.84;;;20.45;44.42
13050;BME280;6591;51.446;5.404;2023-03-24T10:38:54;99967.91;;;20.48;44.89
13050;BME280;6591;51.446;5.404;2023-03-24T10:41:27;99985.78;;;20.49;44.62
13050;BME280;6591;51.446;5.404;2023-03-24T10:43:56;99989.84;;;20.53;44.60
13050;BME280;6591;51.446;5.404;2023-03-24T10:46:27;99990.56;;;20.55;43.94
13050;BME280;6591;51.446;5.404;2023-03-24T10:49:17;99994.41;;;20.52;44.09
13050;BME280;6591;51.446;5.404;2023-03-24T10:51:48;99982.31;;;20.56;44.46
13050;BME280;6591;51.446;5.404;2023-03-24T10:54:23;99988.97;;;20.62;45.20
13050;BME280;6591;51.446;5.404;2023-03-24T11:02:28;99980.44;;;20.92;44.99
13050;BME280;6591;51.446;5.404;2023-03-24T11:05:15;99984.09;;;21.09;45.01
13050;BME280;6591;51.446;5.404;2023-03-24T11:07:48;99979.38;;;21.29;45.45
13050;BME280;6591;51.446;5.404;2023-03-24T11:10:23;99974.44;;;21.50;45.30
13050;BME280;6591;51.446;5.404;2023-03-24T11:15:27;99967.88;;;21.94;44.15
13050;BME280;6591;51.446;5.404;2023-03-24T11:20:42;99964.25;;;22.28;44.08
13050;BME280;6591;51.446;5.404;2023-03-24T11:23:24;99979.66;;;22.35;43.10
13050;BME280;6591;51.446;5.404;2023-03-24T11:26:34;99981.50;;;22.35;42.84
13050;BME280;6591;51.446;5.404;2023-03-24T11:29:13;99962.41;;;22.36;43.07
13050;BME280;6591;51.446;5.404;2023-03-24T11:31:55;99969.50;;;22.37;42.85
13050;BME280;6591;51.446;5.404;2023-03-24T11:34:30;99960.19;;;22.40;42.52
13050;BME280;6591;51.446;5.404;2023-03-24T11:37:13;99964.44;;;22.43;42.55
13050;BME280;6591;51.446;5.404;2023-03-24T11:39:43;99966.66;;;22.47;42.56
13050;BME280;6591;51.446;5.404;2023-03-24T11:43:03;99970.38;;;22.38;42.12
13050;BME280;6591;51.446;5.404;2023-03-24T11:45:43;99983.50;;;22.25;41.14
13050;BME280;6591;51.446;5.404;2023-03-24T11:51:09;100021.34;;;21.49;41.68
13050;BME280;6591;51.446;5.404;2023-03-24T11:53:50;100022.44;;;20.95;42.06
13050;BME280;6591;51.446;5.404;2023-03-24T11:56:51;100036.84;;;20.33;43.59
13050;BME280;6591;51.446;5.404;2023-03-24T11:59:34;100040.63;;;19.85;44.83
13050;BME280;6591;51.446;5.404;2023-03-24T12:05:39;100049.91;;;18.78;46.59
13050;BME280;6591;51.446;5.404;2023-03-24T12:08:44;100060.59;;;18.49;47.25
13050;BME280;6591;51.446;5.404;2023-03-24T12:11:35;100066.84;;;18.00;48.10
13050;BME280;6591;51.446;5.404;2023-03-24T12:14:07;100072.38;;;17.68;48.76
13050;BME280;6591;51.446;5.404;2023-03-24T12:17:14;100055.88;;;17.31;49.35
13050;BME280;6591;51.446;5.404;2023-03-24T12:20:22;100062.63;;;17.05;50.17
13050;BME280;6591;51.446;5.404;2023-03-24T12:26:19;100041.03;;;16.75;51.14
13050;BME280;6591;51.446;5.404;2023-03-24T12:46:05;100022.97;;;17.09;53.56
13050;BME280;6591;51.446;5.404;2023-03-24T12:55:15;100025.50;;;17.31;54.49
13050;BME280;6591;51.446;5.404;2023-03-24T12:57:51;100026.41;;;17.41;54.52
13050;BME280;6591;51.446;5.404;2023-03-24T13:00:26;100012.06;;;17.52;54.34
13050;BME280;6591;51.446;5.404;2023-03-24T13:02:59;100008.47;;;17.62;54.87
13050;BME280;6591;51.446;5.404;2023-03-24T13:05:34;100007.53;;;17.73;55.01
13050;BME280;6591;51.446;5.404;2023-03-24T13:08:13;99999.81;;;17.89;55.45
13050;BME280;6591;51.446;5.404;2023-03-24T13:10:43;99988.81;;;18.11;55.76
13050;BME280;6591;51.446;5.404;2023-03-24T13:13:35;99996.50;;;18.35;55.84
13050;BME280;6591;51.446;5.404;2023-03-24T13:16:23;99987.59;;;18.63;56.19
13050;BME280;6591;51.446;5.404;2023-03-24T13:18:56;99985.31;;;18.97;56.39
13050;BME280;6591;51.446;5.404;2023-03-24T13:21:27;99983.41;;;19.27;56.42
13050;BME280;6591;51.446;5.404;2023-03-24T13:24:05;99971.84;;;19.54;55.96
13050;BME280;6591;51.446;5.404;2023-03-24T13:27:31;99974.44;;;19.82;55.98
13050;BME280;6591;51.446;5.404;2023-03-24T13:30:19;99978.31;;;20.15;55.92
13050;BME280;6591;51.446;5.404;2023-03-24T13:33:05;99972.22;;;20.41;55.23
13050;BME280;6591;51.446;5.404;2023-03-24T13:39:15;99983.38;;;20.63;53.27
13050;BME280;6591;51.446;5.404;2023-03-24T13:41:49;99971.59;;;20.64;52.93
13050;BME280;6591;51.446;5.404;2023-03-24T13:44:25;99967.06;;;20.65;53.06
13050;BME280;6591;51.446;5.404;2023-03-24T13:47:13;99982.63;;;20.71;53.98
13050;BME280;6591;51.446;5.404;2023-03-24T13:49:54;99982.53;;;20.81;53.25
13050;BME280;6591;51.446;5.404;2023-03-24T13:52:36;99976.03;;;20.91;54.01
13050;BME280;6591;51.446;5.404;2023-03-24T13:55:18;99957.75;;;21.03;53.61
13050;BME280;6591;51.446;5.404;2023-03-24T13:58:04;99956.94;;;21.10;53.70
13050;BME280;6591;51.446;5.404;2023-03-24T14:04:13;99959.91;;;21.25;53.28
13050;BME280;6591;51.446;5.404;2023-03-24T14:06:56;99953.72;;;21.33;51.42
13050;BME280;6591;51.446;5.404;2023-03-24T14:09:29;99953.09;;;21.39;52.25
13050;BME280;6591;51.446;5.404;2023-03-24T14:14:34;99937.16;;;21.28;51.44
13050;BME280;6591;51.446;5.404;2023-03-24T14:22:32;99948.28;;;21.25;51.68
13050;BME280;6591;51.446;5.404;2023-03-24T14:25:24;99934.81;;;21.33;52.40
13050;BME280;6591;51.446;5.404;2023-03-24T14:28:06;99931.69;;;21.45;52.24
13050;BME280;6591;51.446;5.404;2023-03-24T14:30:34;99938.16;;;21.61;52.07
13050;BME280;6591;51.446;5.404;2023-03-24T14:33:23;99933.63;;;21.69;51.15
13050;BME280;6591;51.446;5.404;2023-03-24T14:36:02;99931.66;;;21.79;51.71
13050;BME280;6591;51.446;5.404;2023-03-24T14:38:41;99926.63;;;21.92;51.19
13050;BME280;6591;51.446;5.404;2023-03-24T14:41:15;99925.84;;;22.08;51.69
13050;BME280;6591;51.446;5.404;2023-03-24T14:49:02;99934.34;;;22.62;50.85
13050;BME280;6591;51.446;5.404;2023-03-24T14:51:56;99929.13;;;22.85;49.59
13050;BME280;6591;51.446;5.404;2023-03-24T14:57:29;99913.34;;;23.04;48.06
13050;BME280;6591;51.446;5.404;2023-03-24T15:00:34;99932.16;;;22.98;46.70
13050;BME280;6591;51.446;5.404;2023-03-24T15:05:47;99934.72;;;22.75;46.82
13050;BME280;6591;51.446;5.404;2023-03-24T15:08:19;99937.25;;;22.60;46.24
13050;BME280;6591;51.446;5.404;2023-03-24T15:10:53;99932.66;;;22.53;46.68
13050;BME280;6591;51.446;5.404;2023-03-24T15:13:31;99933.16;;;22.48;46.67
13050;BME280;6591;51.446;5.404;2023-03-24T15:16:25;99934.88;;;22.49;46.67
13050;BME280;6591;51.446;5.404;2023-03-24T15:18:59;99934.84;;;22.41;46.02
13050;BME280;6591;51.446;5.404;2023-03-24T15:21:44;99927.25;;;22.28;45.51
13050;BME280;6591;51.446;5.404;2023-03-24T15:24:22;99928.91;;;22.13;45.29
13050;BME280;6591;51.446;5.404;2023-03-24T15:27:13;99923.22;;;21.90;45.26
13050;BME280;6591;51.446;5.404;2023-03-24T15:29:43;99922.34;;;21.74;44.48
13050;BME280;6591;51.446;5.404;2023-03-24T15:32:21;99918.34;;;21.44;45.04
13050;BME280;6591;51.446;5.404;2023-03-24T15:34:54;99909.28;;;21.19;45.08
13050;BME280;6591;51.446;5.404;2023-03-24T15:37:35;99905.72;;;20.93;45.54
13050;BME280;6591;51.446;5.404;2023-03-24T15:43:00;99910.56;;;20.89;47.07
13050;BME280;6591;51.446;5.404;2023-03-24T15:45:44;99912.84;;;21.02;47.54
13050;BME280;6591;51.446;5.404;2023-03-24T15:48:33;99908.94;;;21.22;47.55
13050;BME280;6591;51.446;5.404;2023-03-24T15:51:06;99893.97;;;21.36;47.10
13050;BME280;6591;51.446;5.404;2023-03-24T15:53:41;99901.91;;;21.37;46.20
13050;BME280;6591;51.446;5.404;2023-03-24T15:58:55;99906.25;;;21.30;45.99
13050;BME280;6591;51.446;5.404;2023-03-24T16:01:33;99904.06;;;21.26;46.06
13050;BME280;6591;51.446;5.404;2023-03-24T16:04:13;99901.31;;;21.18;46.05
13050;BME280;6591;51.446;5.404;2023-03-24T16:06:51;99901.31;;;21.18;46.14
13050;BME280;6591;51.446;5.404;2023-03-24T16:09:21;99905.38;;;21.22;46.36
13050;BME280;6591;51.446;5.404;2023-03-24T16:11:53;99891.59;;;21.25;45.67
13050;BME280;6591;51.446;5.404;2023-03-24T16:14:25;99885.84;;;21.28;45.69
13050;BME280;6591;51.446;5.404;2023-03-24T16:16:55;99889.59;;;21.35;45.87
13050;BME280;6591;51.446;5.404;2023-03-24T16:19:24;99895.53;;;21.46;46.66
13050;BME280;6591;51.446;5.404;2023-03-24T16:21:51;99883.59;;;21.57;46.66